Time;durP1;ratioP1;P1;durP2;ratioP2;P2;SDS_P1;SDS_P2;PMS_P1;PMS_P2;Temp;Humidity;BMP_temperature;BMP_pressure;BME280_temperature;BME280_humidity;BME280_pressure;Samples;Min_cycle;Max_cycle;Signal;HPM_P1;HPM_P2
2021/09/21 00:02:34;;;;;;;5.13;2.38;;;;;;;10.58;100.00;102449.16;6348312;28;20051;-76
2021/09/21 00:05:36;;;;;;;4.72;2.20;;;;;;;10.56;100.00;102460.59;6347932;28;20056;-75
2021/09/21 00:08:38;;;;;;;6.95;1.92;;;;;;;10.51;100.00;102460.72;6348347;28;20050;-74
2021/09/21 00:11:39;;;;;;;3.97;2.30;;;;;;;10.47;100.00;102451.16;6347843;28;20047;-76
2021/09/21 00:14:42;;;;;;;4.28;2.28;;;;;;;10.45;100.00;102454.75;6347938;28;20043;-76
2021/09/21 00:17:44;;;;;;;3.63;2.08;;;;;;;10.41;100.00;102461.84;6347590;28;20439;-75
2021/09/21 00:20:45;;;;;;;4.97;2.22;;;;;;;10.40;100.00;102457.47;6347581;28;20051;-76
2021/09/21 00:23:46;;;;;;;3.75;2.35;;;;;;;10.34;100.00;102458.50;6347702;28;20051;-76
2021/09/21 00:26:48;;;;;;;2.10;1.58;;;;;;;10.31;100.00;102463.84;6347581;28;20498;-74
2021/09/21 00:29:51;;;;;;;7.78;2.72;;;;;;;10.28;100.00;102457.78;6347685;28;20047;-75
2021/09/21 00:33:01;;;;;;;4.40;2.53;;;;;;;10.25;100.00;102458.72;6347357;28;20139;-75
2021/09/21 00:36:03;;;;;;;8.38;2.40;;;;;;;10.21;100.00;102450.91;6345040;28;20040;-75
2021/09/21 00:39:06;;;;;;;4.38;2.30;;;;;;;10.18;100.00;102443.13;6337801;28;20055;-75
2021/09/21 00:42:09;;;;;;;3.25;2.15;;;;;;;10.12;100.00;102437.09;6368281;22;20047;-78
2021/09/21 00:45:24;;;;;;;3.25;2.22;;;;;;;10.06;100.00;102429.38;6352986;27;20062;-77
2021/09/21 00:48:25;;;;;;;3.67;2.28;;;;;;;10.02;100.00;102440.84;6372961;27;20486;-78
2021/09/21 00:51:27;;;;;;;7.85;2.75;;;;;;;9.95;100.00;102436.66;6349427;27;20043;-78
2021/09/21 00:54:28;;;;;;;5.28;2.40;;;;;;;9.91;100.00;102433.25;6346941;28;20496;-78
2021/09/21 00:57:31;;;;;;;2.25;1.85;;;;;;;9.84;100.00;102431.66;6347355;28;20169;-77
2021/09/21 01:00:35;;;;;;;4.90;2.45;;;;;;;9.78;100.00;102442.28;6346982;28;20059;-76
2021/09/21 01:03:36;;;;;;;6.85;2.25;;;;;;;9.70;100.00;102435.50;6346610;28;20056;-78
2021/09/21 01:06:37;;;;;;;3.25;1.70;;;;;;;9.65;100.00;102436.44;6365897;27;20054;-78
2021/09/21 01:09:39;;;;;;;2.78;1.85;;;;;;;9.68;100.00;102438.16;6365528;27;20043;-77
2021/09/21 01:12:41;;;;;;;11.75;2.58;;;;;;;9.67;100.00;102436.41;6371972;27;20039;-78
2021/09/21 01:15:44;;;;;;;5.13;2.53;;;;;;;9.70;100.00;102436.34;6363512;27;20541;-78
2021/09/21 01:18:45;;;;;;;7.28;2.60;;;;;;;9.64;100.00;102439.97;6372243;27;20055;-78
2021/09/21 01:21:49;;;;;;;5.05;2.70;;;;;;;9.63;100.00;102430.38;6372082;27;20410;-78
2021/09/21 01:24:50;;;;;;;5.40;1.85;;;;;;;9.60;100.00;102433.06;6372003;28;20051;-78
2021/09/21 01:27:52;;;;;;;3.70;1.92;;;;;;;9.50;100.00;102442.06;6372317;28;20051;-77
2021/09/21 01:30:53;;;;;;;4.00;2.03;;;;;;;9.51;100.00;102448.16;6375526;27;20054;-77
2021/09/21 01:33:57;;;;;;;3.05;1.70;;;;;;;9.51;100.00;102450.78;6377423;27;20054;-77
2021/09/21 01:37:00;;;;;;;7.28;2.45;;;;;;;9.49;100.00;102450.78;6377354;27;20614;-78
2021/09/21 01:40:02;;;;;;;3.55;2.13;;;;;;;9.50;100.00;102449.06;6377497;27;20050;-78
2021/09/21 01:43:03;;;;;;;5.85;2.08;;;;;;;9.49;100.00;102456.03;6377394;27;20058;-78
2021/09/21 01:46:04;;;;;;;3.80;2.00;;;;;;;9.48;100.00;102453.47;6376879;27;20406;-77
2021/09/21 01:49:06;;;;;;;4.57;1.95;;;;;;;9.49;100.00;102444.69;6377327;27;20051;-78
2021/09/21 01:52:12;;;;;;;4.70;2.55;;;;;;;9.50;100.00;102449.06;6376633;27;20485;-78
2021/09/21 01:55:21;;;;;;;3.45;1.98;;;;;;;9.46;100.00;102448.25;6376694;27;20079;-77
2021/09/21 02:01:40;;;;;;;5.88;2.72;;;;;;;9.48;100.00;102449.06;6365848;27;20429;-77
2021/09/21 02:04:42;;;;;;;4.35;1.98;;;;;;;9.50;100.00;102449.94;6376378;27;20047;-78
2021/09/21 02:07:44;;;;;;;3.40;1.98;;;;;;;9.50;100.00;102449.06;6376818;27;20062;-77
2021/09/21 02:10:46;;;;;;;4.55;1.90;;;;;;;9.55;100.00;102444.56;6376620;27;20044;-78
2021/09/21 02:13:47;;;;;;;3.78;2.20;;;;;;;9.59;100.00;102447.09;6376636;27;20054;-78
2021/09/21 02:16:51;;;;;;;5.95;2.55;;;;;;;9.59;100.00;102439.22;6376613;27;20051;-78
2021/09/21 02:19:52;;;;;;;4.40;2.20;;;;;;;9.61;100.00;102429.53;6376735;27;20059;-77
2021/09/21 02:22:56;;;;;;;4.95;2.13;;;;;;;9.64;100.00;102423.38;6376473;27;20521;-78
2021/09/21 02:25:57;;;;;;;3.65;1.80;;;;;;;9.65;100.00;102431.19;6376544;27;20124;-77
2021/09/21 02:28:58;;;;;;;3.15;2.30;;;;;;;9.65;100.00;102433.81;6376386;27;20418;-78
2021/09/21 02:32:00;;;;;;;4.78;2.30;;;;;;;9.69;100.00;102432.00;6376388;27;20043;-78
2021/09/21 02:35:01;;;;;;;2.78;1.90;;;;;;;9.73;100.00;102431.03;6375928;27;20050;-78
2021/09/21 02:38:04;;;;;;;4.57;2.28;;;;;;;9.73;100.00;102431.03;6376449;27;20054;-77
2021/09/21 02:41:06;;;;;;;4.40;2.40;;;;;;;9.75;100.00;102431.00;6376183;27;20043;-78
2021/09/21 02:44:07;;;;;;;3.67;1.70;;;;;;;9.76;100.00;102432.72;6376215;27;20697;-77
2021/09/21 02:47:09;;;;;;;5.15;2.20;;;;;;;9.77;100.00;102432.69;6376413;27;20078;-79
2021/09/21 02:50:11;;;;;;;2.28;1.50;;;;;;;9.78;100.00;102433.56;6376065;27;20046;-80
2021/09/21 02:53:16;;;;;;;6.13;2.40;;;;;;;9.78;100.00;102428.31;6376374;27;20058;-76
2021/09/21 02:56:18;;;;;;;4.25;1.85;;;;;;;9.76;100.00;102433.56;6376705;27;20635;-79
2021/09/21 02:59:19;;;;;;;5.15;2.00;;;;;;;9.74;100.00;102440.63;6375795;27;20047;-79
2021/09/21 03:02:21;;;;;;;2.67;1.70;;;;;;;9.76;100.00;102438.81;6375646;27;20054;-79
2021/09/21 03:05:25;;;;;;;2.95;2.05;;;;;;;9.76;100.00;102446.69;6375155;27;20043;-79
2021/09/21 03:08:30;;;;;;;4.95;1.92;;;;;;;9.76;100.00;102441.44;6375607;27;20055;-77
2021/09/21 03:11:38;;;;;;;5.53;2.35;;;;;;;9.79;100.00;102443.16;6374869;27;20180;-78
2021/09/21 03:17:59;;;;;;;7.82;2.15;;;;;;;9.79;100.00;102448.41;6375338;27;20047;-79
2021/09/21 03:21:00;;;;;;;3.80;1.90;;;;;;;9.78;100.00;102458.06;6375839;27;20043;-78
2021/09/21 03:24:04;;;;;;;3.08;1.42;;;;;;;9.74;100.00;102445.88;6376556;27;20054;-78
2021/09/21 03:27:05;;;;;;;3.15;1.77;;;;;;;9.78;100.00;102449.31;6375253;27;20054;-79
2021/09/21 03:30:07;;;;;;;5.32;2.15;;;;;;;9.79;100.00;102475.53;6374794;27;20054;-78
2021/09/21 03:33:09;;;;;;;3.60;1.75;;;;;;;9.81;100.00;102479.00;6374877;27;20047;-79
2021/09/21 03:36:10;;;;;;;2.30;1.63;;;;;;;9.84;100.00;102493.81;6374334;27;20486;-79
2021/09/21 03:39:13;;;;;;;5.28;2.05;;;;;;;9.86;100.00;102481.53;6374895;27;20047;-78
2021/09/21 03:42:14;;;;;;;6.25;2.60;;;;;;;9.87;100.00;102481.47;6373978;27;20059;-78
2021/09/21 03:45:16;;;;;;;2.03;1.73;;;;;;;9.94;100.00;102483.94;6374305;27;20058;-79
2021/09/21 03:48:17;;;;;;;5.30;2.28;;;;;;;9.95;100.00;102486.56;6374413;27;20047;-79
2021/09/21 03:51:18;;;;;;;3.97;2.15;;;;;;;9.99;100.00;102479.44;6374223;27;20058;-79
2021/09/21 03:54:21;;;;;;;4.32;2.25;;;;;;;10.01;100.00;102491.66;6373405;27;20066;-78
2021/09/21 03:57:22;;;;;;;3.83;1.70;;;;;;;10.01;100.00;102490.81;6373665;27;20051;-78
2021/09/21 04:00:24;;;;;;;4.32;2.38;;;;;;;10.01;100.00;102488.19;6374072;27;20054;-79
2021/09/21 04:03:25;;;;;;;3.58;2.22;;;;;;;10.04;100.00;102490.75;6373720;27;20043;-78
2021/09/21 04:06:27;;;;;;;3.35;2.13;;;;;;;10.05;100.00;102488.06;6374175;27;20051;-79
2021/09/21 04:09:29;;;;;;;3.78;1.83;;;;;;;10.05;100.00;102490.69;6373746;27;20054;-78
2021/09/21 04:12:31;;;;;;;5.30;2.83;;;;;;;10.05;100.00;102500.34;6373713;27;20490;-78
2021/09/21 04:15:32;;;;;;;4.65;2.53;;;;;;;10.05;100.00;102493.31;6373451;27;20426;-79
2021/09/21 04:18:33;;;;;;;3.95;2.05;;;;;;;10.03;100.00;102486.38;6374025;27;20044;-79
2021/09/21 04:21:35;;;;;;;4.07;2.15;;;;;;;9.99;100.00;102488.22;6373709;27;20047;-79
2021/09/21 04:24:38;;;;;;;4.22;2.47;;;;;;;9.97;100.00;102504.91;6373434;27;20391;-78
2021/09/21 04:27:40;;;;;;;5.22;2.50;;;;;;;9.96;100.00;102498.78;6374672;27;20138;-78
2021/09/21 04:30:43;;;;;;;4.28;2.58;;;;;;;9.97;100.00;102494.41;6374329;27;20043;-78
2021/09/21 04:33:44;;;;;;;6.70;2.30;;;;;;;10.01;100.00;102490.81;6373894;27;20047;-78
2021/09/21 04:36:45;;;;;;;6.85;2.65;;;;;;;10.03;100.00;102491.63;6373462;27;20520;-78
2021/09/21 04:39:48;;;;;;;6.97;2.20;;;;;;;10.03;100.00;102489.84;6374081;27;20047;-78
2021/09/21 04:42:49;;;;;;;5.00;2.15;;;;;;;10.03;100.00;102499.50;6372981;27;20063;-78
2021/09/21 04:45:51;;;;;;;4.65;2.20;;;;;;;10.04;100.00;102498.63;6373189;27;20043;-77
2021/09/21 04:48:53;;;;;;;5.40;2.70;;;;;;;10.04;100.00;102498.63;6372900;27;20164;-78
2021/09/21 04:51:54;;;;;;;2.85;1.88;;;;;;;10.06;100.00;102508.19;6373098;27;20039;-79
2021/09/21 04:54:57;;;;;;;7.85;2.47;;;;;;;10.03;100.00;102510.88;6372702;27;20043;-78
2021/09/21 04:57:58;;;;;;;3.83;2.00;;;;;;;10.03;100.00;102507.38;6372733;27;20055;-78
2021/09/21 05:01:00;;;;;;;4.00;2.20;;;;;;;10.05;100.00;102508.22;6372578;27;20426;-79
2021/09/21 05:04:01;;;;;;;3.83;2.47;;;;;;;10.05;100.00;102505.59;6372227;27;20054;-80
2021/09/21 05:07:03;;;;;;;3.20;1.95;;;;;;;10.06;100.00;102497.69;6373520;27;20043;-78
2021/09/21 05:10:07;;;;;;;4.68;2.30;;;;;;;10.06;100.00;102500.31;6373361;27;20059;-80
2021/09/21 05:13:08;;;;;;;3.50;1.98;;;;;;;10.07;100.00;102502.03;6373228;27;20508;-80
2021/09/21 05:16:10;;;;;;;6.22;2.45;;;;;;;10.08;100.00;102506.41;6372354;27;20054;-77
2021/09/21 05:19:11;;;;;;;3.58;2.25;;;;;;;10.08;100.00;102510.75;6369200;27;20047;-80
2021/09/21 05:22:13;;;;;;;7.07;2.60;;;;;;;10.08;100.00;102521.25;6366070;27;20518;-79
2021/09/21 05:25:16;;;;;;;3.95;1.70;;;;;;;10.08;100.00;102523.91;6357049;28;20047;-79
2021/09/21 05:28:17;;;;;;;5.78;2.58;;;;;;;10.07;100.00;102525.66;6347306;28;20418;-80
2021/09/21 05:31:18;;;;;;;5.03;2.38;;;;;;;9.98;100.00;102522.38;6346671;28;20047;-80
2021/09/21 05:34:20;;;;;;;3.75;2.22;;;;;;;9.98;100.00;102530.25;6346423;28;20051;-79
2021/09/21 05:37:22;;;;;;;4.05;2.00;;;;;;;10.00;100.00;102533.75;6346698;28;20044;-79
2021/09/21 05:40:26;;;;;;;4.70;2.50;;;;;;;10.03;100.00;102538.91;6346610;28;20055;-79
2021/09/21 05:43:27;;;;;;;3.90;2.13;;;;;;;10.04;100.00;102541.50;6346474;28;20059;-79
2021/09/21 05:46:29;;;;;;;2.83;1.73;;;;;;;10.02;100.00;102535.41;6348185;28;20048;-79
2021/09/21 05:49:30;;;;;;;4.28;2.17;;;;;;;10.00;100.00;102539.84;6350139;28;20490;-79
2021/09/21 05:52:31;;;;;;;3.05;1.73;;;;;;;10.03;100.00;102544.16;6349767;28;20513;-79
2021/09/21 05:55:34;;;;;;;10.45;2.00;;;;;;;10.01;100.00;102544.19;6347726;28;20422;-80
2021/09/21 05:58:35;;;;;;;4.25;2.35;;;;;;;10.02;100.00;102538.03;6346652;28;20254;-79
2021/09/21 06:01:37;;;;;;;4.03;2.15;;;;;;;10.04;100.00;102540.66;6346269;28;20047;-78
2021/09/21 06:04:38;;;;;;;5.78;2.20;;;;;;;10.07;100.00;102543.19;6358446;28;20043;-80
2021/09/21 06:07:48;;;;;;;3.97;2.20;;;;;;;10.09;100.00;102547.53;6363759;28;20043;-79
2021/09/21 06:10:50;;;;;;;4.35;2.20;;;;;;;10.10;100.00;102553.63;6373874;28;20051;-80
2021/09/21 06:13:52;;;;;;;5.00;2.60;;;;;;;10.10;100.00;102559.75;6373511;28;20036;-80
2021/09/21 06:16:53;;;;;;;5.07;2.60;;;;;;;10.13;100.00;102564.94;6366649;27;20051;-79
2021/09/21 06:19:55;;;;;;;8.40;2.60;;;;;;;10.16;100.00;102561.38;6376345;27;20047;-79
2021/09/21 06:22:56;;;;;;;4.97;2.72;;;;;;;10.16;100.00;102558.75;6376151;27;20524;-79
2021/09/21 06:25:59;;;;;;;3.78;2.13;;;;;;;10.18;100.00;102554.34;6368835;27;20039;-79
2021/09/21 06:29:00;;;;;;;6.05;2.65;;;;;;;10.21;100.00;102558.63;6376417;27;20058;-79
2021/09/21 06:32:01;;;;;;;6.30;2.88;;;;;;;10.27;100.00;102563.81;6376988;27;20047;-79
2021/09/21 06:35:04;;;;;;;7.20;2.80;;;;;;;10.27;100.00;102550.66;6375747;27;20501;-79
2021/09/21 06:38:05;;;;;;;5.20;2.63;;;;;;;10.30;100.00;102555.84;6376474;27;20054;-79
2021/09/21 06:41:08;;;;;;;7.00;2.70;;;;;;;10.30;100.00;102567.22;6390553;22;20459;-80
2021/09/21 06:44:09;;;;;;;8.73;3.53;;;;;;;10.27;100.00;102579.56;6325482;28;20407;-79
2021/09/21 06:47:11;;;;;;;7.18;2.28;;;;;;;10.24;100.00;102590.13;6326225;28;20499;-80
2021/09/21 06:50:14;;;;;;;3.20;2.42;;;;;;;10.27;100.00;102588.31;6326679;28;20055;-80
2021/09/21 06:53:15;;;;;;;6.28;2.92;;;;;;;10.30;100.00;102600.50;6326030;28;20422;-79
2021/09/21 06:56:18;;;;;;;4.85;2.35;;;;;;;10.35;100.00;102607.38;6316684;28;20048;-79
2021/09/21 06:59:19;;;;;;;5.43;2.78;;;;;;;10.37;100.00;102608.22;6323194;28;20060;-80
2021/09/21 07:02:20;;;;;;;4.68;2.70;;;;;;;10.43;100.00;102598.47;6326075;28;20047;-78
2021/09/21 07:05:23;;;;;;;5.63;2.65;;;;;;;10.48;100.00;102594.81;6325480;28;20510;-79
2021/09/21 07:08:25;;;;;;;4.45;2.30;;;;;;;10.55;100.00;102606.09;6314696;28;20049;-80
2021/09/21 07:11:28;;;;;;;6.32;3.10;;;;;;;10.61;100.00;102616.44;6318793;28;20048;-79
2021/09/21 07:14:29;;;;;;;6.30;3.40;;;;;;;10.65;100.00;102605.81;6321824;28;20052;-80
2021/09/21 07:17:30;;;;;;;5.40;3.20;;;;;;;10.71;100.00;102606.56;6322330;28;20060;-79
2021/09/21 07:20:32;;;;;;;6.40;3.03;;;;;;;10.70;100.00;102602.22;6318309;28;20059;-80
2021/09/21 07:23:33;;;;;;;4.47;2.55;;;;;;;10.74;100.00;102588.97;6327181;28;20044;-79
2021/09/21 07:26:36;;;;;;;7.43;3.15;;;;;;;10.77;100.00;102590.66;6320679;28;20044;-79
2021/09/21 07:29:37;;;;;;;4.03;2.58;;;;;;;10.84;100.00;102590.44;6322862;28;20439;-80
2021/09/21 07:32:39;;;;;;;4.68;2.38;;;;;;;10.95;100.00;102605.13;6325333;28;20055;-79
2021/09/21 07:35:40;;;;;;;6.22;3.47;;;;;;;11.01;100.00;102604.97;6323945;28;20040;-78
2021/09/21 07:38:41;;;;;;;6.38;3.10;;;;;;;11.04;100.00;102608.38;6324994;28;20051;-78
2021/09/21 07:41:44;;;;;;;5.78;2.55;;;;;;;11.12;100.00;102610.81;6314638;28;20044;-78
2021/09/21 07:44:46;;;;;;;7.97;3.10;;;;;;;11.22;100.00;102609.69;6310559;28;20055;-79
2021/09/21 07:47:49;;;;;;;7.28;2.63;;;;;;;11.32;100.00;102612.94;6316979;28;20048;-80
2021/09/21 07:50:51;;;;;;;5.40;2.80;;;;;;;11.41;100.00;102623.22;6318100;28;20048;-80
2021/09/21 07:53:53;;;;;;;5.57;2.58;;;;;;;11.46;100.00;102629.22;6309171;28;20043;-80
2021/09/21 07:56:55;;;;;;;5.18;2.97;;;;;;;11.46;100.00;102616.06;6320519;28;20067;-79
2021/09/21 07:59:57;;;;;;;3.40;2.35;;;;;;;11.48;100.00;102622.13;6325110;28;20059;-80
2021/09/21 08:02:58;;;;;;;3.40;2.25;;;;;;;11.55;100.00;102623.69;6325318;28;20044;-80
2021/09/21 08:05:59;;;;;;;6.35;2.45;;;;;;;11.56;99.93;102632.47;6325544;28;20055;-79
2021/09/21 08:09:01;;;;;;;4.40;2.70;;;;;;;11.61;100.00;102634.06;6324158;28;20059;-80
2021/09/21 08:12:05;;;;;;;7.47;3.08;;;;;;;11.64;100.00;102639.25;6324117;28;20055;-80
2021/09/21 08:15:08;;;;;;;9.48;3.42;;;;;;;11.69;100.00;102637.34;6324015;28;20510;-79
2021/09/21 08:18:10;;;;;;;5.25;2.60;;;;;;;11.78;99.93;102635.38;6324380;28;20052;-79
2021/09/21 08:21:11;;;;;;;7.13;3.25;;;;;;;11.79;99.24;102632.69;6323352;28;20118;-79
2021/09/21 08:24:13;;;;;;;6.60;3.17;;;;;;;11.77;100.00;102633.66;6324472;28;20048;-79
2021/09/21 08:27:16;;;;;;;6.00;3.03;;;;;;;11.87;100.00;102635.16;6324414;28;20071;-80
2021/09/21 08:30:19;;;;;;;8.98;3.33;;;;;;;11.98;100.00;102640.09;6324948;28;20044;-79
2021/09/21 08:33:21;;;;;;;3.97;2.75;;;;;;;12.06;100.00;102646.88;6324079;28;20044;-79
2021/09/21 08:36:22;;;;;;;7.40;3.00;;;;;;;12.12;98.30;102649.31;6323843;28;20052;-80
2021/09/21 08:39:23;;;;;;;4.13;2.20;;;;;;;12.17;97.96;102649.19;6324344;28;20048;-81
2021/09/21 08:42:26;;;;;;;3.88;2.42;;;;;;;12.25;98.19;102643.69;6324459;28;20518;-79
2021/09/21 08:45:28;;;;;;;5.47;2.47;;;;;;;12.28;99.08;102647.13;6324218;28;20044;-79
2021/09/21 08:48:30;;;;;;;6.20;2.72;;;;;;;12.34;99.13;102640.78;6324136;28;20055;-80
2021/09/21 08:51:32;;;;;;;4.25;2.50;;;;;;;12.41;99.18;102640.56;6323984;28;20498;-80
2021/09/21 08:54:33;;;;;;;4.63;2.42;;;;;;;12.44;98.36;102636.94;6323906;28;20048;-80
2021/09/21 08:57:37;;;;;;;5.20;2.95;;;;;;;12.49;98.45;102631.53;6324128;28;20059;-79
2021/09/21 09:00:38;;;;;;;7.63;3.03;;;;;;;12.53;96.95;102638.44;6324082;28;20044;-80
2021/09/21 09:03:39;;;;;;;5.32;2.72;;;;;;;12.57;96.33;102640.06;6324126;28;20048;-80
2021/09/21 09:06:42;;;;;;;5.28;3.08;;;;;;;12.60;95.39;102640.84;6322992;28;20048;-80
2021/09/21 09:09:44;;;;;;;5.70;2.70;;;;;;;12.54;94.29;102638.41;6322814;28;20075;-80
2021/09/21 09:12:47;;;;;;;4.25;2.47;;;;;;;12.57;93.96;102650.63;6322460;28;20044;-79
2021/09/21 09:15:56;;;;;;;5.63;2.45;;;;;;;12.55;94.60;102648.03;6322935;28;20047;-80
2021/09/21 09:19:02;;;;;;;7.32;2.60;;;;;;;12.58;94.29;102660.25;6323391;28;20048;-79
2021/09/21 09:22:06;;;;;;;6.57;3.13;;;;;;;12.61;93.35;102654.91;6322532;28;20157;-79
2021/09/21 09:25:08;;;;;;;6.55;2.97;;;;;;;12.56;91.89;102662.94;6322779;28;20048;-80
2021/09/21 09:28:15;;;;;;;4.80;2.22;;;;;;;12.56;93.37;102668.22;6321707;28;20052;-80
2021/09/21 09:31:25;;;;;;;4.93;2.55;;;;;;;12.61;93.63;102662.81;6321675;28;20132;-80
2021/09/21 09:34:28;;;;;;;5.75;2.33;;;;;;;12.64;94.59;102662.72;6321143;28;20510;-79
2021/09/21 09:37:39;;;;;;;5.22;2.88;;;;;;;12.66;93.56;102661.75;6321517;28;20059;-79
2021/09/21 09:40:41;;;;;;;4.65;2.90;;;;;;;12.73;93.97;102659.78;6321246;28;20052;-79
2021/09/21 09:43:45;;;;;;;5.05;2.35;;;;;;;12.72;92.55;102659.81;6321332;28;20044;-79
2021/09/21 09:46:49;;;;;;;4.25;2.63;;;;;;;12.69;90.46;102666.94;6321356;28;20139;-80
2021/09/21 09:49:51;;;;;;;4.03;2.38;;;;;;;12.70;90.22;102668.66;6321978;28;20051;-79
2021/09/21 09:53:02;;;;;;;4.85;2.25;;;;;;;12.79;88.98;102670.16;6327094;28;20048;-79
2021/09/21 09:56:04;;;;;;;3.67;2.40;;;;;;;12.87;85.58;102676.03;6327355;28;20052;-79
2021/09/21 09:59:07;;;;;;;6.05;2.40;;;;;;;12.86;84.86;102670.81;6327386;28;20051;-80
2021/09/21 10:02:09;;;;;;;4.32;2.13;;;;;;;12.89;82.51;102682.13;6327664;28;20048;-80
2021/09/21 10:05:11;;;;;;;5.20;2.13;;;;;;;12.92;81.43;102675.91;6326914;28;20452;-80
2021/09/21 10:08:13;;;;;;;4.82;2.38;;;;;;;12.91;83.17;102682.09;6327378;28;20051;-81
2021/09/21 10:11:14;;;;;;;5.70;2.22;;;;;;;12.96;82.13;102674.88;6329888;28;20052;-81
2021/09/21 10:14:19;;;;;;;3.17;1.92;;;;;;;12.97;81.54;102679.25;6329424;28;20050;-81
2021/09/21 10:17:26;;;;;;;2.92;2.03;;;;;;;12.93;82.71;102683.75;6328726;28;20474;-81
2021/09/21 10:20:32;;;;;;;4.50;1.92;;;;;;;12.93;82.83;102672.34;6329507;28;20094;-79
2021/09/21 10:23:36;;;;;;;3.47;1.90;;;;;;;12.97;83.23;102678.38;6329610;28;20051;-81
2021/09/21 10:26:40;;;;;;;7.05;2.58;;;;;;;13.00;83.80;102681.81;6328770;28;20055;-80
2021/09/21 10:29:43;;;;;;;5.90;2.45;;;;;;;13.04;81.71;102672.88;6327717;28;20139;-78
2021/09/21 10:32:45;;;;;;;5.30;2.03;;;;;;;13.15;81.50;102670.72;6326775;28;20044;-81
2021/09/21 10:35:49;;;;;;;3.75;2.00;;;;;;;13.05;82.57;102677.22;6327712;28;20055;-81
2021/09/21 10:38:59;;;;;;;3.35;1.77;;;;;;;13.10;83.11;102677.06;6327274;28;20067;-80
2021/09/21 10:42:04;;;;;;;2.53;1.50;;;;;;;13.12;82.75;102672.59;6326598;28;20056;-81
2021/09/21 10:45:08;;;;;;;7.40;2.67;;;;;;;13.18;81.09;102672.41;6326845;28;20040;-81
2021/09/21 10:48:09;;;;;;;4.28;1.60;;;;;;;13.21;79.81;102674.94;6326562;28;20414;-80
2021/09/21 10:51:12;;;;;;;10.13;2.58;;;;;;;13.29;81.61;102677.34;6326486;28;20414;-81
2021/09/21 10:54:14;;;;;;;4.82;1.85;;;;;;;13.33;81.29;102671.06;6327029;28;20047;-81
2021/09/21 10:57:17;;;;;;;3.83;1.95;;;;;;;13.36;80.18;102671.81;6327276;28;20052;-81
2021/09/21 11:00:21;;;;;;;3.45;2.00;;;;;;;13.38;81.98;102682.31;6327076;28;20486;-81
2021/09/21 11:03:26;;;;;;;5.95;1.95;;;;;;;13.47;83.83;102679.38;6325101;28;20075;-75
2021/09/21 11:06:28;;;;;;;3.15;2.00;;;;;;;13.49;80.21;102682.84;6326107;28;20070;-80
2021/09/21 11:09:30;;;;;;;4.78;1.75;;;;;;;13.53;80.29;102668.56;6327279;28;20479;-80
2021/09/21 11:12:31;;;;;;;2.55;1.55;;;;;;;13.54;80.80;102675.63;6327671;28;20063;-80
2021/09/21 11:15:34;;;;;;;10.43;2.65;;;;;;;13.62;79.72;102670.03;6326921;28;20051;-80
2021/09/21 11:18:36;;;;;;;4.57;2.90;;;;;;;13.64;81.30;102666.44;6327588;28;20048;-80
2021/09/21 11:21:38;;;;;;;3.35;2.10;;;;;;;13.73;80.45;102664.38;6328576;28;20138;-79
2021/09/21 11:24:39;;;;;;;4.32;2.15;;;;;;;13.83;78.41;102671.06;6325472;28;20055;-78
2021/09/21 11:27:42;;;;;;;3.20;1.88;;;;;;;13.95;78.03;102650.34;6326936;28;20529;-78
2021/09/21 11:30:46;;;;;;;3.20;2.03;;;;;;;14.04;77.48;102649.13;6327570;28;20055;-79
2021/09/21 11:33:48;;;;;;;6.13;2.05;;;;;;;14.05;77.73;102648.22;6327206;28;20051;-78
2021/09/21 11:36:50;;;;;;;4.57;2.42;;;;;;;14.19;77.19;102650.34;6327006;28;20043;-77
2021/09/21 11:39:52;;;;;;;5.38;2.47;;;;;;;14.27;77.31;102629.75;6325995;28;20048;-78
2021/09/21 11:42:54;;;;;;;3.33;1.88;;;;;;;14.29;76.40;102641.13;6319588;28;20040;-78
2021/09/21 11:45:57;;;;;;;4.57;2.30;;;;;;;14.25;74.96;102628.06;6317953;28;20051;-78
2021/09/21 11:48:59;;;;;;;2.60;1.90;;;;;;;14.24;77.84;102631.66;6331892;28;20047;-77
2021/09/21 11:52:03;;;;;;;3.47;2.22;;;;;;;14.32;75.94;102632.22;6320008;28;20075;-78
2021/09/21 11:55:11;;;;;;;3.53;2.05;;;;;;;14.35;75.38;102627.69;6326898;28;20048;-79
2021/09/21 11:58:14;;;;;;;4.47;1.85;;;;;;;14.41;75.65;102629.22;6331762;28;20044;-78
2021/09/21 12:01:18;;;;;;;3.03;2.10;;;;;;;14.50;76.02;102633.31;6315262;28;20075;-77
2021/09/21 12:04:19;;;;;;;4.93;2.50;;;;;;;14.53;77.23;102631.38;6325471;28;20048;-78
2021/09/21 12:07:20;;;;;;;4.10;2.30;;;;;;;14.61;74.71;102618.72;6325787;28;20048;-78
2021/09/21 12:10:26;;;;;;;3.60;2.00;;;;;;;14.69;73.67;102608.69;6312942;28;20059;-79
2021/09/21 12:13:28;;;;;;;4.65;2.17;;;;;;;14.68;74.33;102601.69;6302675;28;20044;-79
2021/09/21 12:16:31;;;;;;;3.90;2.20;;;;;;;14.81;73.36;102604.69;6323051;28;20048;-79
2021/09/21 12:19:41;;;;;;;3.90;2.30;;;;;;;14.91;71.51;102607.81;6318805;28;20130;-79
2021/09/21 12:22:50;;;;;;;3.00;1.90;;;;;;;15.01;71.94;102598.56;6318418;28;20048;-78
2021/09/21 12:25:53;;;;;;;4.93;2.58;;;;;;;15.03;72.42;102591.38;6303060;28;20145;-79
2021/09/21 12:28:55;;;;;;;3.05;1.98;;;;;;;15.02;71.74;102584.38;6307532;28;20056;-78
2021/09/21 12:31:58;;;;;;;3.25;2.33;;;;;;;15.06;71.38;102587.75;6307938;28;20060;-79
2021/09/21 12:35:02;;;;;;;7.68;1.95;;;;;;;15.06;72.02;102588.63;6319937;28;20051;-78
2021/09/21 12:38:08;;;;;;;2.20;1.73;;;;;;;15.16;72.49;102595.25;6325052;28;20052;-79
2021/09/21 12:41:11;;;;;;;3.70;2.20;;;;;;;15.17;74.03;102593.44;6330802;28;20059;-80
2021/09/21 12:44:15;;;;;;;3.40;2.10;;;;;;;15.22;72.84;102586.19;6331798;28;20044;-79
2021/09/21 12:47:19;;;;;;;4.03;2.15;;;;;;;15.36;74.40;102577.63;6329437;28;20090;-79
2021/09/21 12:50:21;;;;;;;3.55;2.10;;;;;;;15.37;71.85;102579.34;6326333;28;20048;-78
2021/09/21 12:53:23;;;;;;;3.15;2.25;;;;;;;15.51;70.98;102581.38;6324424;28;20051;-78
2021/09/21 12:56:26;;;;;;;3.85;2.10;;;;;;;15.63;68.83;102588.81;6324647;28;20044;-78
2021/09/21 12:59:29;;;;;;;5.30;2.58;;;;;;;15.77;70.83;102580.25;6325448;28;20055;-79
2021/09/21 13:02:32;;;;;;;3.92;2.10;;;;;;;15.85;70.02;102575.44;6325057;28;20055;-79
2021/09/21 13:05:35;;;;;;;3.10;2.00;;;;;;;15.87;68.57;102590.34;6323875;28;20491;-79
2021/09/21 13:08:38;;;;;;;8.07;2.28;;;;;;;15.81;69.48;102592.44;6316845;28;20044;-78
2021/09/21 13:11:39;;;;;;;3.08;1.88;;;;;;;15.86;69.15;102586.00;6312318;28;20416;-78
2021/09/21 13:14:41;;;;;;;3.50;1.67;;;;;;;15.83;69.70;102594.06;6314003;28;20036;-81
2021/09/21 13:17:44;;;;;;;3.95;1.77;;;;;;;15.82;68.04;102589.72;6314059;28;20131;-79
2021/09/21 13:20:46;;;;;;;3.35;1.50;;;;;;;15.78;68.60;102585.47;6327548;28;20047;-79
2021/09/21 13:23:49;;;;;;;2.42;1.48;;;;;;;15.70;68.33;102588.47;6317727;28;20491;-79
2021/09/21 13:26:51;;;;;;;1.88;1.30;;;;;;;15.67;70.45;102582.47;6324837;28;20055;-79
2021/09/21 13:29:52;;;;;;;2.25;1.58;;;;;;;15.67;68.46;102572.72;6317561;28;20055;-78
2021/09/21 13:32:55;;;;;;;2.60;1.80;;;;;;;15.70;69.26;102574.34;6324933;28;20540;-79
2021/09/21 13:35:57;;;;;;;2.42;1.58;;;;;;;15.70;67.75;102580.50;6324264;28;20051;-78
2021/09/21 13:38:58;;;;;;;2.60;1.67;;;;;;;15.75;67.50;102587.41;6325403;28;20051;-79
2021/09/21 13:41:59;;;;;;;4.72;2.50;;;;;;;15.83;68.94;102579.97;6313721;28;20059;-79
2021/09/21 13:45:01;;;;;;;2.10;1.52;;;;;;;15.95;68.86;102580.25;6299381;28;20049;-81
2021/09/21 13:48:04;;;;;;;2.67;1.50;;;;;;;15.88;68.74;102583.25;6299670;28;20404;-80
2021/09/21 13:51:06;;;;;;;2.40;1.60;;;;;;;15.97;66.52;102578.38;6300498;28;20052;-78
2021/09/21 13:54:07;;;;;;;3.17;1.65;;;;;;;15.94;66.44;102569.69;6304166;28;20488;-80
2021/09/21 13:57:09;;;;;;;3.60;1.88;;;;;;;16.03;65.65;102579.03;6305985;28;20059;-81
2021/09/21 14:00:14;;;;;;;3.20;1.52;;;;;;;16.02;66.75;102574.66;6320967;28;20055;-80
2021/09/21 14:03:16;;;;;;;3.13;1.88;;;;;;;15.84;67.01;102581.69;6322289;28;20488;-81
2021/09/21 14:06:18;;;;;;;4.07;1.70;;;;;;;15.78;68.27;102580.16;6322435;28;20055;-80
2021/09/21 14:09:21;;;;;;;2.38;1.65;;;;;;;15.78;68.07;102572.22;6331119;28;20443;-84
2021/09/21 14:12:23;;;;;;;2.30;1.73;;;;;;;15.96;68.07;102567.84;6326887;28;20055;-83